sensor_id;sensor_type;location;lat;lon;timestamp;temperature;humidity
67196;DHT22;54122;53.538;49.366;2023-03-01T00:01:32;-2.20;88.50
67196;DHT22;54122;53.538;49.366;2023-03-01T00:03:59;-2.20;88.60
67196;DHT22;54122;53.538;49.366;2023-03-01T00:06:26;-2.20;88.70
67196;DHT22;54122;53.538;49.366;2023-03-01T00:08:53;-2.10;88.80
67196;DHT22;54122;53.538;49.366;2023-03-01T00:11:28;-2.10;88.80
67196;DHT22;54122;53.538;49.366;2023-03-01T00:13:57;-2.10;88.80
67196;DHT22;54122;53.538;49.366;2023-03-01T00:16:30;-2.10;88.90
67196;DHT22;54122;53.538;49.366;2023-03-01T00:18:57;-2.10;89.00
67196;DHT22;54122;53.538;49.366;2023-03-01T00:21:24;-2.10;90.00
67196;DHT22;54122;53.538;49.366;2023-03-01T00:23:51;-2.10;89.20
67196;DHT22;54122;53.538;49.366;2023-03-01T00:26:19;-2.10;89.30
67196;DHT22;54122;53.538;49.366;2023-03-01T00:28:46;-2.10;89.40
67196;DHT22;54122;53.538;49.366;2023-03-01T00:31:15;-2.10;89.60
67196;DHT22;54122;53.538;49.366;2023-03-01T00:33:42;-2.10;89.40
67196;DHT22;54122;53.538;49.366;2023-03-01T00:36:11;-2.10;89.50
67196;DHT22;54122;53.538;49.366;2023-03-01T00:38:39;-2.10;89.60
67196;DHT22;54122;53.538;49.366;2023-03-01T00:41:08;-2.10;89.60
67196;DHT22;54122;53.538;49.366;2023-03-01T00:43:36;-2.10;89.70
67196;DHT22;54122;53.538;49.366;2023-03-01T00:46:04;-2.00;89.70
67196;DHT22;54122;53.538;49.366;2023-03-01T00:48:31;-2.00;89.70
67196;DHT22;54122;53.538;49.366;2023-03-01T00:51:04;-1.90;89.50
67196;DHT22;54122;53.538;49.366;2023-03-01T00:53:31;-2.00;89.50
67196;DHT22;54122;53.538;49.366;2023-03-01T00:55:58;-1.90;89.70
67196;DHT22;54122;53.538;49.366;2023-03-01T00:58:24;-2.00;89.80
67196;DHT22;54122;53.538;49.366;2023-03-01T01:00:51;-2.00;89.90
67196;DHT22;54122;53.538;49.366;2023-03-01T01:03:19;-2.00;90.00
67196;DHT22;54122;53.538;49.366;2023-03-01T01:05:45;-2.00;90.10
67196;DHT22;54122;53.538;49.366;2023-03-01T01:08:12;-2.00;90.10
67196;DHT22;54122;53.538;49.366;2023-03-01T01:10:38;-2.00;90.10
67196;DHT22;54122;53.538;49.366;2023-03-01T01:13:05;-2.00;90.20
67196;DHT22;54122;53.538;49.366;2023-03-01T01:15:34;-2.00;90.20
67196;DHT22;54122;53.538;49.366;2023-03-01T01:18:01;-1.90;90.20
67196;DHT22;54122;53.538;49.366;2023-03-01T01:20:27;-1.90;90.20
67196;DHT22;54122;53.538;49.366;2023-03-01T01:22:53;-1.90;90.20
67196;DHT22;54122;53.538;49.366;2023-03-01T01:25:20;-1.90;90.10
67196;DHT22;54122;53.538;49.366;2023-03-01T01:27:47;-1.90;90.10
67196;DHT22;54122;53.538;49.366;2023-03-01T01:30:13;-1.90;90.10
67196;DHT22;54122;53.538;49.366;2023-03-01T01:32:39;-1.90;90.10
67196;DHT22;54122;53.538;49.366;2023-03-01T01:35:06;-1.90;90.10
67196;DHT22;54122;53.538;49.366;2023-03-01T01:37:32;-1.90;90.20
67196;DHT22;54122;53.538;49.366;2023-03-01T01:40:00;-1.90;90.20
67196;DHT22;54122;53.538;49.366;2023-03-01T01:42:27;-1.90;90.20
67196;DHT22;54122;53.538;49.366;2023-03-01T01:45:54;-1.90;90.20
67196;DHT22;54122;53.538;49.366;2023-03-01T01:48:10;-1.80;90.30
67196;DHT22;54122;53.538;49.366;2023-03-01T01:50:40;-1.90;90.30
67196;DHT22;54122;53.538;49.366;2023-03-01T01:53:12;-1.90;90.30
67196;DHT22;54122;53.538;49.366;2023-03-01T01:55:43;-1.80;90.30
67196;DHT22;54122;53.538;49.366;2023-03-01T01:58:15;-1.80;90.30
67196;DHT22;54122;53.538;49.366;2023-03-01T02:00:41;-1.80;90.30
67196;DHT22;54122;53.538;49.366;2023-03-01T02:03:13;-1.90;90.30
67196;DHT22;54122;53.538;49.366;2023-03-01T02:08:18;-1.90;90.40
67196;DHT22;54122;53.538;49.366;2023-03-01T02:10:45;-1.80;90.40
67196;DHT22;54122;53.538;49.366;2023-03-01T02:13:12;-1.90;90.30
67196;DHT22;54122;53.538;49.366;2023-03-01T02:15:40;-1.80;90.40
67196;DHT22;54122;53.538;49.366;2023-03-01T02:18:08;-1.80;90.40
67196;DHT22;54122;53.538;49.366;2023-03-01T02:21:10;-1.80;90.40
67196;DHT22;54122;53.538;49.366;2023-03-01T02:23:38;-1.80;90.40
67196;DHT22;54122;53.538;49.366;2023-03-01T02:26:15;-1.90;90.40
67196;DHT22;54122;53.538;49.366;2023-03-01T02:28:44;-1.90;90.40
67196;DHT22;54122;53.538;49.366;2023-03-01T02:31:17;-1.90;90.40
67196;DHT22;54122;53.538;49.366;2023-03-01T02:34:03;-1.80;90.40
67196;DHT22;54122;53.538;49.366;2023-03-01T02:36:53;-1.80;90.40
67196;DHT22;54122;53.538;49.366;2023-03-01T02:39:26;-1.80;90.30
67196;DHT22;54122;53.538;49.366;2023-03-01T02:41:54;-1.70;90.40
67196;DHT22;54122;53.538;49.366;2023-03-01T02:44:22;-1.70;90.30
67196;DHT22;54122;53.538;49.366;2023-03-01T02:46:53;-1.70;90.30
67196;DHT22;54122;53.538;49.366;2023-03-01T02:49:30;-1.70;90.20
67196;DHT22;54122;53.538;49.366;2023-03-01T02:52:30;-1.70;90.20
67196;DHT22;54122;53.538;49.366;2023-03-01T02:55:10;-1.60;90.20
67196;DHT22;54122;53.538;49.366;2023-03-01T02:57:40;-1.60;90.10
67196;DHT22;54122;53.538;49.366;2023-03-01T03:00:09;-1.60;90.20
67196;DHT22;54122;53.538;49.366;2023-03-01T03:02:36;-1.60;90.10
67196;DHT22;54122;53.538;49.366;2023-03-01T03:07:36;-1.60;90.20
67196;DHT22;54122;53.538;49.366;2023-03-01T03:10:04;-1.60;90.70
67196;DHT22;54122;53.538;49.366;2023-03-01T03:12:32;-1.60;90.30
67196;DHT22;54122;53.538;49.366;2023-03-01T03:14:58;-1.60;90.20
67196;DHT22;54122;53.538;49.366;2023-03-01T03:17:24;-1.60;90.20
67196;DHT22;54122;53.538;49.366;2023-03-01T03:19:51;-1.60;90.30
67196;DHT22;54122;53.538;49.366;2023-03-01T03:22:17;-1.60;90.20
67196;DHT22;54122;53.538;49.366;2023-03-01T03:24:43;-1.60;90.20
67196;DHT22;54122;53.538;49.366;2023-03-01T03:27:09;-1.60;90.20
67196;DHT22;54122;53.538;49.366;2023-03-01T03:29:35;-1.60;90.20
67196;DHT22;54122;53.538;49.366;2023-03-01T03:32:02;-1.60;90.20
67196;DHT22;54122;53.538;49.366;2023-03-01T03:34:28;-1.60;90.20
67196;DHT22;54122;53.538;49.366;2023-03-01T03:36:55;-1.60;90.20
67196;DHT22;54122;53.538;49.366;2023-03-01T03:39:28;-1.60;90.20
67196;DHT22;54122;53.538;49.366;2023-03-01T03:42:00;-1.50;90.20
67196;DHT22;54122;53.538;49.366;2023-03-01T03:44:27;-1.60;90.20
67196;DHT22;54122;53.538;49.366;2023-03-01T03:46:53;-1.60;90.20
67196;DHT22;54122;53.538;49.366;2023-03-01T03:49:19;-1.50;90.20
67196;DHT22;54122;53.538;49.366;2023-03-01T03:51:46;-1.50;90.20
67196;DHT22;54122;53.538;49.366;2023-03-01T03:54:12;-1.50;90.20
67196;DHT22;54122;53.538;49.366;2023-03-01T03:56:38;-1.50;90.20
67196;DHT22;54122;53.538;49.366;2023-03-01T03:59:04;-1.50;90.20
67196;DHT22;54122;53.538;49.366;2023-03-01T04:01:31;-1.50;90.20
67196;DHT22;54122;53.538;49.366;2023-03-01T04:03:57;-1.50;90.20
67196;DHT22;54122;53.538;49.366;2023-03-01T04:06:29;-1.50;90.20
67196;DHT22;54122;53.538;49.366;2023-03-01T04:08:56;-1.40;90.30
67196;DHT22;54122;53.538;49.366;2023-03-01T04:11:24;-1.40;90.30
67196;DHT22;54122;53.538;49.366;2023-03-01T04:13:55;-1.40;90.30
67196;DHT22;54122;53.538;49.366;2023-03-01T04:16:22;-1.30;90.30
67196;DHT22;54122;53.538;49.366;2023-03-01T04:18:49;-1.30;90.30
67196;DHT22;54122;53.538;49.366;2023-03-01T04:21:16;-1.20;90.20
67196;DHT22;54122;53.538;49.366;2023-03-01T04:23:42;-1.10;90.10
67196;DHT22;54122;53.538;49.366;2023-03-01T04:26:09;-1.10;90.00
67196;DHT22;54122;53.538;49.366;2023-03-01T04:28:40;-1.00;90.00
67196;DHT22;54122;53.538;49.366;2023-03-01T04:31:13;-0.90;90.00
67196;DHT22;54122;53.538;49.366;2023-03-01T04:33:43;-0.90;89.60
67196;DHT22;54122;53.538;49.366;2023-03-01T04:36:11;-0.80;89.50
67196;DHT22;54122;53.538;49.366;2023-03-01T04:38:39;-0.80;89.20
67196;DHT22;54122;53.538;49.366;2023-03-01T04:41:08;-0.80;89.10
67196;DHT22;54122;53.538;49.366;2023-03-01T04:43:35;-0.70;89.00
67196;DHT22;54122;53.538;49.366;2023-03-01T04:46:04;-0.60;88.90
67196;DHT22;54122;53.538;49.366;2023-03-01T04:48:32;-0.60;88.70
67196;DHT22;54122;53.538;49.366;2023-03-01T04:50:59;-0.50;88.60
67196;DHT22;54122;53.538;49.366;2023-03-01T04:53:26;-0.30;88.70
67196;DHT22;54122;53.538;49.366;2023-03-01T04:55:54;-0.10;88.20
67196;DHT22;54122;53.538;49.366;2023-03-01T04:58:23;0.20;88.10
67196;DHT22;54122;53.538;49.366;2023-03-01T05:00:50;0.60;86.60
67196;DHT22;54122;53.538;49.366;2023-03-01T05:03:16;0.80;84.80
67196;DHT22;54122;53.538;49.366;2023-03-01T05:05:45;0.80;83.80
67196;DHT22;54122;53.538;49.366;2023-03-01T05:08:13;0.80;83.50
67196;DHT22;54122;53.538;49.366;2023-03-01T05:10:45;0.70;82.80
67196;DHT22;54122;53.538;49.366;2023-03-01T05:13:13;0.70;82.40
67196;DHT22;54122;53.538;49.366;2023-03-01T05:15:41;0.60;82.20
67196;DHT22;54122;53.538;49.366;2023-03-01T05:18:07;0.60;82.40
67196;DHT22;54122;53.538;49.366;2023-03-01T05:20:37;0.70;82.50
67196;DHT22;54122;53.538;49.366;2023-03-01T05:23:04;0.70;81.90
67196;DHT22;54122;53.538;49.366;2023-03-01T05:25:34;0.80;82.00
67196;DHT22;54122;53.538;49.366;2023-03-01T05:28:09;0.90;82.10
67196;DHT22;54122;53.538;49.366;2023-03-01T05:30:37;1.00;81.50
67196;DHT22;54122;53.538;49.366;2023-03-01T05:33:07;1.00;80.60
67196;DHT22;54122;53.538;49.366;2023-03-01T05:35:44;1.10;80.20
67196;DHT22;54122;53.538;49.366;2023-03-01T05:38:12;1.10;80.00
67196;DHT22;54122;53.538;49.366;2023-03-01T05:40:46;1.20;79.70
67196;DHT22;54122;53.538;49.366;2023-03-01T05:43:15;1.30;79.60
67196;DHT22;54122;53.538;49.366;2023-03-01T05:45:41;1.30;79.10
67196;DHT22;54122;53.538;49.366;2023-03-01T05:48:10;1.40;78.70
67196;DHT22;54122;53.538;49.366;2023-03-01T05:50:42;1.40;77.60
67196;DHT22;54122;53.538;49.366;2023-03-01T05:53:14;1.30;77.40
67196;DHT22;54122;53.538;49.366;2023-03-01T05:55:41;1.30;77.40
67196;DHT22;54122;53.538;49.366;2023-03-01T05:58:11;1.30;77.50
67196;DHT22;54122;53.538;49.366;2023-03-01T06:00:37;1.40;77.40
67196;DHT22;54122;53.538;49.366;2023-03-01T06:03:04;1.70;77.50
67196;DHT22;54122;53.538;49.366;2023-03-01T06:05:30;2.00;77.00
67196;DHT22;54122;53.538;49.366;2023-03-01T06:07:59;2.20;76.20
67196;DHT22;54122;53.538;49.366;2023-03-01T06:10:25;2.40;76.10
67196;DHT22;54122;53.538;49.366;2023-03-01T06:12:52;2.40;75.10
67196;DHT22;54122;53.538;49.366;2023-03-01T06:15:19;2.40;74.60
67196;DHT22;54122;53.538;49.366;2023-03-01T06:17:46;2.30;73.20
67196;DHT22;54122;53.538;49.366;2023-03-01T06:20:22;2.10;72.80
67196;DHT22;54122;53.538;49.366;2023-03-01T06:22:49;2.00;73.30
67196;DHT22;54122;53.538;49.366;2023-03-01T06:25:22;1.90;73.50
67196;DHT22;54122;53.538;49.366;2023-03-01T06:27:48;1.80;72.60
67196;DHT22;54122;53.538;49.366;2023-03-01T06:30:17;1.70;72.80
67196;DHT22;54122;53.538;49.366;2023-03-01T06:32:44;1.90;73.00
67196;DHT22;54122;53.538;49.366;2023-03-01T06:35:13;2.00;72.60
67196;DHT22;54122;53.538;49.366;2023-03-01T06:37:40;2.00;71.70
67196;DHT22;54122;53.538;49.366;2023-03-01T06:40:08;1.70;71.40
67196;DHT22;54122;53.538;49.366;2023-03-01T06:42:42;1.50;71.80
67196;DHT22;54122;53.538;49.366;2023-03-01T06:45:09;1.30;72.20
67196;DHT22;54122;53.538;49.366;2023-03-01T06:47:36;1.20;72.60
67196;DHT22;54122;53.538;49.366;2023-03-01T06:50:03;1.10;72.80
67196;DHT22;54122;53.538;49.366;2023-03-01T06:52:29;1.00;73.00
67196;DHT22;54122;53.538;49.366;2023-03-01T06:54:56;1.00;73.40
67196;DHT22;54122;53.538;49.366;2023-03-01T06:57:22;1.10;73.60
67196;DHT22;54122;53.538;49.366;2023-03-01T06:59:49;1.20;73.30
67196;DHT22;54122;53.538;49.366;2023-03-01T07:02:17;1.20;73.30
67196;DHT22;54122;53.538;49.366;2023-03-01T07:04:44;1.20;72.60
67196;DHT22;54122;53.538;49.366;2023-03-01T07:07:11;1.50;73.30
67196;DHT22;54122;53.538;49.366;2023-03-01T07:09:38;2.00;72.70
67196;DHT22;54122;53.538;49.366;2023-03-01T07:12:04;2.30;71.70
67196;DHT22;54122;53.538;49.366;2023-03-01T07:14:32;2.50;70.70
67196;DHT22;54122;53.538;49.366;2023-03-01T07:16:58;2.40;69.60
67196;DHT22;54122;53.538;49.366;2023-03-01T07:19:25;2.40;69.60
67196;DHT22;54122;53.538;49.366;2023-03-01T07:21:51;2.50;69.30
67196;DHT22;54122;53.538;49.366;2023-03-01T07:24:17;2.70;69.30
67196;DHT22;54122;53.538;49.366;2023-03-01T07:26:44;3.00;68.20
67196;DHT22;54122;53.538;49.366;2023-03-01T07:29:10;3.30;66.70
67196;DHT22;54122;53.538;49.366;2023-03-01T07:31:37;3.10;64.10
67196;DHT22;54122;53.538;49.366;2023-03-01T07:34:03;2.90;64.20
67196;DHT22;54122;53.538;49.366;2023-03-01T07:36:29;2.70;64.10
67196;DHT22;54122;53.538;49.366;2023-03-01T07:38:55;2.50;64.80
67196;DHT22;54122;53.538;49.366;2023-03-01T07:41:22;2.40;65.00
67196;DHT22;54122;53.538;49.366;2023-03-01T07:43:48;2.30;65.20
67196;DHT22;54122;53.538;49.366;2023-03-01T07:46:15;2.10;65.50
67196;DHT22;54122;53.538;49.366;2023-03-01T07:48:41;2.10;66.20
67196;DHT22;54122;53.538;49.366;2023-03-01T07:51:07;2.30;66.50
67196;DHT22;54122;53.538;49.366;2023-03-01T07:53:34;2.60;66.00
67196;DHT22;54122;53.538;49.366;2023-03-01T07:56:05;3.00;63.30
67196;DHT22;54122;53.538;49.366;2023-03-01T07:58:34;3.40;63.10
67196;DHT22;54122;53.538;49.366;2023-03-01T08:01:05;3.80;60.90
67196;DHT22;54122;53.538;49.366;2023-03-01T08:03:32;3.80;58.90
67196;DHT22;54122;53.538;49.366;2023-03-01T08:06:07;3.60;58.50
67196;DHT22;54122;53.538;49.366;2023-03-01T08:08:40;3.20;58.40
67196;DHT22;54122;53.538;49.366;2023-03-01T08:11:07;3.00;59.10
67196;DHT22;54122;53.538;49.366;2023-03-01T08:13:33;2.80;59.10
67196;DHT22;54122;53.538;49.366;2023-03-01T08:16:05;2.50;59.30
67196;DHT22;54122;53.538;49.366;2023-03-01T08:18:31;2.10;59.30
67196;DHT22;54122;53.538;49.366;2023-03-01T08:21:17;1.80;60.40
67196;DHT22;54122;53.538;49.366;2023-03-01T08:23:44;1.50;61.40
67196;DHT22;54122;53.538;49.366;2023-03-01T08:26:14;1.50;62.70
67196;DHT22;54122;53.538;49.366;2023-03-01T08:28:43;1.70;62.50
67196;DHT22;54122;53.538;49.366;2023-03-01T08:31:30;1.70;61.80
67196;DHT22;54122;53.538;49.366;2023-03-01T08:33:59;1.80;61.00
67196;DHT22;54122;53.538;49.366;2023-03-01T08:36:28;2.00;61.50
67196;DHT22;54122;53.538;49.366;2023-03-01T08:38:55;2.30;60.70
67196;DHT22;54122;53.538;49.366;2023-03-01T08:41:22;2.30;59.60
67196;DHT22;54122;53.538;49.366;2023-03-01T08:43:48;2.30;59.90
67196;DHT22;54122;53.538;49.366;2023-03-01T08:46:14;2.70;60.10
67196;DHT22;54122;53.538;49.366;2023-03-01T08:48:41;3.50;58.10
67196;DHT22;54122;53.538;49.366;2023-03-01T08:53:35;3.50;55.70
67196;DHT22;54122;53.538;49.366;2023-03-01T08:56:01;3.30;56.00
67196;DHT22;54122;53.538;49.366;2023-03-01T08:58:30;3.30;56.10
67196;DHT22;54122;53.538;49.366;2023-03-01T09:00:57;3.80;56.30
67196;DHT22;54122;53.538;49.366;2023-03-01T09:03:24;5.10;54.10
67196;DHT22;54122;53.538;49.366;2023-03-01T09:05:51;6.20;50.30
67196;DHT22;54122;53.538;49.366;2023-03-01T09:08:18;6.10;49.10
67196;DHT22;54122;53.538;49.366;2023-03-01T09:10:45;5.50;49.20
67196;DHT22;54122;53.538;49.366;2023-03-01T09:13:11;5.00;50.30
67196;DHT22;54122;53.538;49.366;2023-03-01T09:15:38;4.70;52.10
67196;DHT22;54122;53.538;49.366;2023-03-01T09:18:05;4.90;52.50
67196;DHT22;54122;53.538;49.366;2023-03-01T09:20:32;5.20;51.20
67196;DHT22;54122;53.538;49.366;2023-03-01T09:22:58;5.10;50.80
67196;DHT22;54122;53.538;49.366;2023-03-01T09:25:25;4.70;50.60
67196;DHT22;54122;53.538;49.366;2023-03-01T09:27:52;4.60;51.00
67196;DHT22;54122;53.538;49.366;2023-03-01T09:30:19;4.10;51.30
67196;DHT22;54122;53.538;49.366;2023-03-01T09:32:45;3.40;52.60
67196;DHT22;54122;53.538;49.366;2023-03-01T09:35:11;2.60;54.40
67196;DHT22;54122;53.538;49.366;2023-03-01T09:37:38;1.90;56.30
67196;DHT22;54122;53.538;49.366;2023-03-01T09:40:14;1.80;58.90
67196;DHT22;54122;53.538;49.366;2023-03-01T09:43:08;2.50;58.40
67196;DHT22;54122;53.538;49.366;2023-03-01T09:45:43;2.90;54.60
67196;DHT22;54122;53.538;49.366;2023-03-01T09:48:19;2.80;54.70
67196;DHT22;54122;53.538;49.366;2023-03-01T09:50:48;3.20;54.90
67196;DHT22;54122;53.538;49.366;2023-03-01T09:53:32;3.40;53.90
67196;DHT22;54122;53.538;49.366;2023-03-01T09:56:27;3.80;53.30
67196;DHT22;54122;53.538;49.366;2023-03-01T10:04:41;3.60;51.10
67196;DHT22;54122;53.538;49.366;2023-03-01T10:09:52;3.10;51.40
67196;DHT22;54122;53.538;49.366;2023-03-01T10:12:22;2.90;52.40
67196;DHT22;54122;53.538;49.366;2023-03-01T10:15:11;2.90;53.50
67196;DHT22;54122;53.538;49.366;2023-03-01T10:17:47;3.10;54.50
67196;DHT22;54122;53.538;49.366;2023-03-01T10:20:29;3.30;54.80
67196;DHT22;54122;53.538;49.366;2023-03-01T10:23:00;3.40;54.80
67196;DHT22;54122;53.538;49.366;2023-03-01T10:25:47;3.40;55.30
67196;DHT22;54122;53.538;49.366;2023-03-01T10:31:02;3.10;56.60
67196;DHT22;54122;53.538;49.366;2023-03-01T10:33:32;2.90;57.40
67196;DHT22;54122;53.538;49.366;2023-03-01T10:35:58;2.70;57.30
67196;DHT22;54122;53.538;49.366;2023-03-01T10:38:25;2.30;56.70
67196;DHT22;54122;53.538;49.366;2023-03-01T10:41:06;1.70;57.30
67196;DHT22;54122;53.538;49.366;2023-03-01T10:49:16;0.60;60.30
67196;DHT22;54122;53.538;49.366;2023-03-01T10:51:44;0.60;60.40
67196;DHT22;54122;53.538;49.366;2023-03-01T10:56:51;0.80;58.80
67196;DHT22;54122;53.538;49.366;2023-03-01T10:59:26;0.80;58.00
67196;DHT22;54122;53.538;49.366;2023-03-01T11:02:23;0.60;58.10
67196;DHT22;54122;53.538;49.366;2023-03-01T11:07:52;0.10;59.30
67196;DHT22;54122;53.538;49.366;2023-03-01T11:10:24;0.00;59.80
67196;DHT22;54122;53.538;49.366;2023-03-01T11:12:53;0.00;59.90
67196;DHT22;54122;53.538;49.366;2023-03-01T11:15:27;0.10;60.00
67196;DHT22;54122;53.538;49.366;2023-03-01T11:17:56;0.30;60.20
67196;DHT22;54122;53.538;49.366;2023-03-01T11:20:34;0.50;59.00
67196;DHT22;54122;53.538;49.366;2023-03-01T11:23:14;0.80;58.30
67196;DHT22;54122;53.538;49.366;2023-03-01T11:26:04;1.10;57.20
67196;DHT22;54122;53.538;49.366;2023-03-01T11:28:32;1.10;55.80
67196;DHT22;54122;53.538;49.366;2023-03-01T11:31:04;1.20;55.60
67196;DHT22;54122;53.538;49.366;2023-03-01T11:33:51;1.30;55.50
67196;DHT22;54122;53.538;49.366;2023-03-01T11:36:35;1.40;54.50
67196;DHT22;54122;53.538;49.366;2023-03-01T11:41:52;1.80;55.10
67196;DHT22;54122;53.538;49.366;2023-03-01T11:44:28;2.20;54.70
67196;DHT22;54122;53.538;49.366;2023-03-01T11:52:46;2.00;51.30
67196;DHT22;54122;53.538;49.366;2023-03-01T11:56:03;1.80;51.40
67196;DHT22;54122;53.538;49.366;2023-03-01T12:11:56;1.80;55.40
67196;DHT22;54122;53.538;49.366;2023-03-01T12:23:11;2.20;53.50
67196;DHT22;54122;53.538;49.366;2023-03-01T12:25:54;1.90;54.00
67196;DHT22;54122;53.538;49.366;2023-03-01T12:28:35;1.80;54.90
67196;DHT22;54122;53.538;49.366;2023-03-01T12:50:36;0.90;58.10
67196;DHT22;54122;53.538;49.366;2023-03-01T12:53:04;0.70;58.00
67196;DHT22;54122;53.538;49.366;2023-03-01T12:55:39;0.40;58.70
67196;DHT22;54122;53.538;49.366;2023-03-01T12:58:34;0.20;59.30
67196;DHT22;54122;53.538;49.366;2023-03-01T13:03:50;-0.30;59.50
67196;DHT22;54122;53.538;49.366;2023-03-01T13:11:44;-1.10;61.10
67196;DHT22;54122;53.538;49.366;2023-03-01T13:16:50;-1.30;61.50
67196;DHT22;54122;53.538;49.366;2023-03-01T13:19:25;-1.40;61.70
67196;DHT22;54122;53.538;49.366;2023-03-01T13:21:53;-1.60;61.70
67196;DHT22;54122;53.538;49.366;2023-03-01T13:29:53;-2.00;61.50
67196;DHT22;54122;53.538;49.366;2023-03-01T13:35:00;-2.30;62.30
67196;DHT22;54122;53.538;49.366;2023-03-01T13:37:35;-2.30;62.30
67196;DHT22;54122;53.538;49.366;2023-03-01T13:42:46;-2.40;62.70
67196;DHT22;54122;53.538;49.366;2023-03-01T13:45:38;-2.50;62.60
67196;DHT22;54122;53.538;49.366;2023-03-01T13:48:17;-2.50;62.70
67196;DHT22;54122;53.538;49.366;2023-03-01T13:51:03;-2.50;62.70
67196;DHT22;54122;53.538;49.366;2023-03-01T13:53:33;-2.30;62.50
67196;DHT22;54122;53.538;49.366;2023-03-01T13:58:43;-2.10;61.30
67196;DHT22;54122;53.538;49.366;2023-03-01T14:01:39;-2.10;60.90
67196;DHT22;54122;53.538;49.366;2023-03-01T14:04:35;-2.00;60.60
67196;DHT22;54122;53.538;49.366;2023-03-01T14:07:19;-2.00;60.20
67196;DHT22;54122;53.538;49.366;2023-03-01T14:10:02;-2.00;59.80
67196;DHT22;54122;53.538;49.366;2023-03-01T14:12:58;-1.90;59.70
67196;DHT22;54122;53.538;49.366;2023-03-01T14:15:34;-1.90;60.10
67196;DHT22;54122;53.538;49.366;2023-03-01T14:18:36;-1.90;60.40
67196;DHT22;54122;53.538;49.366;2023-03-01T14:21:08;-1.80;60.40
67196;DHT22;54122;53.538;49.366;2023-03-01T14:23:38;-1.80;60.40
67196;DHT22;54122;53.538;49.366;2023-03-01T14:26:08;-1.80;60.60
67196;DHT22;54122;53.538;49.366;2023-03-01T14:28:38;-2.00;60.70
67196;DHT22;54122;53.538;49.366;2023-03-01T14:33:57;-2.10;61.80
67196;DHT22;54122;53.538;49.366;2023-03-01T14:36:29;-2.20;62.00
67196;DHT22;54122;53.538;49.366;2023-03-01T14:38:56;-2.30;62.70
67196;DHT22;54122;53.538;49.366;2023-03-01T14:41:35;-2.40;63.00
67196;DHT22;54122;53.538;49.366;2023-03-01T14:44:06;-2.70;63.80
67196;DHT22;54122;53.538;49.366;2023-03-01T14:46:36;-2.70;64.30
67196;DHT22;54122;53.538;49.366;2023-03-01T14:51:41;-2.60;64.80
67196;DHT22;54122;53.538;49.366;2023-03-01T14:54:29;-2.50;64.30
67196;DHT22;54122;53.538;49.366;2023-03-01T14:56:59;-2.40;63.70
67196;DHT22;54122;53.538;49.366;2023-03-01T14:59:26;-2.40;63.60
67196;DHT22;54122;53.538;49.366;2023-03-01T15:01:55;-2.30;63.60
67196;DHT22;54122;53.538;49.366;2023-03-01T15:04:24;-2.30;63.60
67196;DHT22;54122;53.538;49.366;2023-03-01T15:06:53;-2.20;63.60
67196;DHT22;54122;53.538;49.366;2023-03-01T15:09:21;-2.30;63.60
67196;DHT22;54122;53.538;49.366;2023-03-01T15:11:48;-2.30;63.80
67196;DHT22;54122;53.538;49.366;2023-03-01T15:14:40;-2.40;63.80
67196;DHT22;54122;53.538;49.366;2023-03-01T15:17:31;-2.60;64.00
67196;DHT22;54122;53.538;49.366;2023-03-01T15:19:58;-2.80;64.30
67196;DHT22;54122;53.538;49.366;2023-03-01T15:22:26;-3.00;65.10
67196;DHT22;54122;53.538;49.366;2023-03-01T15:24:53;-3.10;65.80
67196;DHT22;54122;53.538;49.366;2023-03-01T15:27:22;-3.20;66.40
67196;DHT22;54122;53.538;49.366;2023-03-01T15:29:55;-3.10;67.20
67196;DHT22;54122;53.538;49.366;2023-03-01T15:32:35;-3.10;67.40
67196;DHT22;54122;53.538;49.366;2023-03-01T15:35:43;-3.00;67.70
67196;DHT22;54122;53.538;49.366;2023-03-01T15:40:53;-3.00;68.40
67196;DHT22;54122;53.538;49.366;2023-03-01T15:46:05;-2.80;68.40
67196;DHT22;54122;53.538;49.366;2023-03-01T15:48:31;-2.70;68.50
67196;DHT22;54122;53.538;49.366;2023-03-01T15:50:58;-2.70;68.40
67196;DHT22;54122;53.538;49.366;2023-03-01T15:53:26;-2.60;68.80
67196;DHT22;54122;53.538;49.366;2023-03-01T15:55:53;-2.60;69.10
67196;DHT22;54122;53.538;49.366;2023-03-01T15:58:24;-2.60;69.30
67196;DHT22;54122;53.538;49.366;2023-03-01T16:00:51;-2.50;69.80
67196;DHT22;54122;53.538;49.366;2023-03-01T16:03:22;-2.50;69.80
67196;DHT22;54122;53.538;49.366;2023-03-01T16:05:49;-2.50;69.90
67196;DHT22;54122;53.538;49.366;2023-03-01T16:08:17;-2.60;70.00
67196;DHT22;54122;53.538;49.366;2023-03-01T16:10:43;-2.70;70.20
67196;DHT22;54122;53.538;49.366;2023-03-01T16:13:11;-2.80;70.50
67196;DHT22;54122;53.538;49.366;2023-03-01T16:15:39;-2.80;70.70
67196;DHT22;54122;53.538;49.366;2023-03-01T16:18:06;-2.90;70.70
67196;DHT22;54122;53.538;49.366;2023-03-01T16:20:34;-3.00;71.00
67196;DHT22;54122;53.538;49.366;2023-03-01T16:23:03;-3.10;71.30
67196;DHT22;54122;53.538;49.366;2023-03-01T16:25:30;-3.10;71.70
67196;DHT22;54122;53.538;49.366;2023-03-01T16:27:57;-3.10;71.80
67196;DHT22;54122;53.538;49.366;2023-03-01T16:30:26;-3.00;71.70
67196;DHT22;54122;53.538;49.366;2023-03-01T16:32:52;-2.90;71.80
67196;DHT22;54122;53.538;49.366;2023-03-01T16:35:20;-2.90;71.50
67196;DHT22;54122;53.538;49.366;2023-03-01T16:37:47;-2.90;71.30
67196;DHT22;54122;53.538;49.366;2023-03-01T16:40:32;-2.90;71.20
67196;DHT22;54122;53.538;49.366;2023-03-01T16:42:59;-2.90;71.00
67196;DHT22;54122;53.538;49.366;2023-03-01T16:45:34;-2.90;71.00
67196;DHT22;54122;53.538;49.366;2023-03-01T16:48:02;-2.90;71.00
67196;DHT22;54122;53.538;49.366;2023-03-01T16:50:28;-2.80;70.90
67196;DHT22;54122;53.538;49.366;2023-03-01T16:52:55;-2.90;70.80
67196;DHT22;54122;53.538;49.366;2023-03-01T16:55:21;-2.90;70.70
67196;DHT22;54122;53.538;49.366;2023-03-01T16:57:47;-2.90;70.70
67196;DHT22;54122;53.538;49.366;2023-03-01T17:00:14;-2.90;70.60
67196;DHT22;54122;53.538;49.366;2023-03-01T17:02:41;-2.90;70.60
67196;DHT22;54122;53.538;49.366;2023-03-01T17:05:08;-2.90;70.20
67196;DHT22;54122;53.538;49.366;2023-03-01T17:07:36;-2.90;70.00
67196;DHT22;54122;53.538;49.366;2023-03-01T17:10:04;-2.90;70.00
67196;DHT22;54122;53.538;49.366;2023-03-01T17:12:32;-2.90;69.90
67196;DHT22;54122;53.538;49.366;2023-03-01T17:14:59;-2.90;69.80
67196;DHT22;54122;53.538;49.366;2023-03-01T17:17:26;-2.90;69.70
67196;DHT22;54122;53.538;49.366;2023-03-01T17:19:53;-2.90;69.30
67196;DHT22;54122;53.538;49.366;2023-03-01T17:22:19;-2.90;69.30
67196;DHT22;54122;53.538;49.366;2023-03-01T17:24:46;-2.90;69.20
67196;DHT22;54122;53.538;49.366;2023-03-01T17:27:12;-2.90;69.10
67196;DHT22;54122;53.538;49.366;2023-03-01T17:29:40;-2.90;68.80
67196;DHT22;54122;53.538;49.366;2023-03-01T17:32:07;-2.90;68.50
67196;DHT22;54122;53.538;49.366;2023-03-01T17:34:34;-3.00;68.50
67196;DHT22;54122;53.538;49.366;2023-03-01T17:37:00;-3.00;68.60
67196;DHT22;54122;53.538;49.366;2023-03-01T17:39:28;-3.00;68.60